Adams Landing, Vermont
Current Conditions -  °F | °C
As of 1:53 PM on Monday 20 Oct 2014 (Local Time) from KPBG Reporting Station
Overcast Overcast  
Wind Chill:   Ceiling: 9000
Heat Index:   Visibility: 10mi
Dew Point:   Wind: 14mph
Humidity: 66%   Direction: 160°SSE
Pressure: 29.92"   Gusts: NA
Location:  44.717°N, 73.3067°W
Report Text: KPBG 201753Z AUTO 16012KT 10SM OVC090 08/02 A2992 RMK AO2 SLP136 T00780017 10089 21006 58019
Loading
Personal Weather Stations






























Interactive Weather Map
Tropical Storm Tracking
New forecast layout! Learn more

10-Day Weather Forecast

Advertisements
Track Severe Weather on mobile